Time;durP1;ratioP1;P1;durP2;ratioP2;P2;SDS_P1;SDS_P2;PMS_P1;PMS_P2;Temp;Humidity;BMP_temperature;BMP_pressure;BME280_temperature;BME280_humidity;BME280_pressure;Samples;Min_cycle;Max_cycle;Signal;HPM_P1;HPM_P2
2022/03/04 04:02:16;;;;;;;27.20;18.90;;;-2.90;99.90;;;;;;5066392;23;20284;-76
2022/03/04 04:04:42;;;;;;;22.87;18.53;;;-2.80;99.90;;;;;;4934368;29;20222;-76
2022/03/04 04:07:10;;;;;;;25.07;19.10;;;-2.70;99.90;;;;;;4933167;29;20259;-76
2022/03/04 04:09:36;;;;;;;29.77;19.80;;;-2.70;99.90;;;;;;4934517;29;20573;-77
2022/03/04 04:12:02;;;;;;;24.80;19.83;;;-2.70;99.90;;;;;;4934697;29;20205;-76
2022/03/04 04:14:28;;;;;;;23.97;18.67;;;-2.70;99.90;;;;;;4934643;29;20187;-76
2022/03/04 04:16:55;;;;;;;27.10;24.27;;;-2.80;99.90;;;;;;4932950;29;20174;-76
2022/03/04 04:19:22;;;;;;;29.80;24.37;;;-2.80;99.90;;;;;;4934318;29;20684;-76
2022/03/04 04:21:49;;;;;;;37.87;34.70;;;-2.90;99.90;;;;;;4934229;29;20306;-75
2022/03/04 04:24:16;;;;;;;30.90;27.67;;;-3.00;99.90;;;;;;4932451;29;20265;-76
2022/03/04 04:26:43;;;;;;;23.80;20.90;;;-3.10;99.90;;;;;;4934462;29;20233;-77
2022/03/04 04:29:09;;;;;;;23.57;19.53;;;-3.10;99.90;;;;;;4934401;29;20665;-76
2022/03/04 04:31:35;;;;;;;22.83;18.37;;;-3.20;99.90;;;;;;4934110;29;20202;-76
2022/03/04 04:34:02;;;;;;;25.33;18.10;;;-3.20;99.90;;;;;;4933815;29;20643;-76
2022/03/04 04:36:28;;;;;;;30.17;17.93;;;-3.20;99.90;;;;;;4932660;29;20197;-76
2022/03/04 04:38:54;;;;;;;22.20;16.43;;;-3.20;99.90;;;;;;4930158;29;20190;-77
2022/03/04 04:41:20;;;;;;;26.47;17.53;;;-3.20;99.90;;;;;;4917447;29;20209;-76
2022/03/04 04:43:46;;;;;;;25.07;18.23;;;-3.30;99.90;;;;;;4921748;29;20273;-76
2022/03/04 04:46:12;;;;;;;24.23;17.23;;;-3.30;99.90;;;;;;4934037;29;20276;-75
2022/03/04 04:48:38;;;;;;;24.10;16.93;;;-3.30;99.90;;;;;;4933790;29;20190;-71
2022/03/04 04:51:05;;;;;;;30.70;17.73;;;-3.30;99.90;;;;;;4932120;29;20266;-73
2022/03/04 04:53:31;;;;;;;28.13;17.90;;;-3.30;99.90;;;;;;4940578;29;20198;-73
2022/03/04 04:55:57;;;;;;;26.70;16.87;;;-3.40;99.90;;;;;;4933880;29;20186;-73
2022/03/04 04:58:23;;;;;;;30.40;16.17;;;-3.40;99.90;;;;;;4932980;29;20182;-73
2022/03/04 05:00:53;;;;;;;24.30;17.00;;;-3.50;99.90;;;;;;4933064;29;20662;-72
2022/03/04 05:03:23;;;;;;;25.47;16.50;;;-3.60;99.90;;;;;;4933185;29;20194;-73
2022/03/04 05:05:50;;;;;;;26.83;17.30;;;-3.70;99.90;;;;;;4933006;29;20301;-73
2022/03/04 05:08:16;;;;;;;29.70;17.47;;;-3.70;99.90;;;;;;4933369;29;20566;-72
2022/03/04 05:10:43;;;;;;;24.50;17.77;;;-3.70;99.90;;;;;;4933210;29;20202;-73
2022/03/04 05:13:09;;;;;;;26.40;20.73;;;-3.60;99.90;;;;;;4928450;29;20738;-72
2022/03/04 05:15:35;;;;;;;28.60;21.00;;;-3.60;99.90;;;;;;4916290;29;20287;-72
2022/03/04 05:18:01;;;;;;;21.83;18.23;;;-3.60;99.90;;;;;;4934638;29;20197;-72
2022/03/04 05:20:27;;;;;;;27.83;18.83;;;-3.70;99.90;;;;;;4934713;29;20190;-73
2022/03/04 05:22:53;;;;;;;26.57;19.07;;;-3.80;99.90;;;;;;4932442;29;20580;-73
2022/03/04 05:25:20;;;;;;;28.03;21.07;;;-3.80;99.90;;;;;;4931623;29;20206;-73
2022/03/04 05:27:45;;;;;;;26.07;19.87;;;-3.80;99.90;;;;;;4932223;29;20230;-72
2022/03/04 05:30:12;;;;;;;32.03;19.97;;;-3.80;99.90;;;;;;4932949;29;20607;-73
2022/03/04 05:32:38;;;;;;;25.87;19.40;;;-3.80;99.90;;;;;;4933258;29;20183;-71
2022/03/04 05:35:05;;;;;;;28.73;19.50;;;-3.80;99.90;;;;;;4932208;29;20187;-72
2022/03/04 05:37:31;;;;;;;24.23;18.60;;;-3.80;99.90;;;;;;4932547;29;20194;-72
2022/03/04 05:39:58;;;;;;;27.87;19.40;;;-3.80;99.90;;;;;;4933041;29;20186;-71
2022/03/04 05:42:24;;;;;;;29.63;19.17;;;-3.80;99.90;;;;;;4931229;29;20229;-73
2022/03/04 05:44:49;;;;;;;27.37;19.83;;;-3.80;99.90;;;;;;4931534;29;20230;-72
2022/03/04 05:47:15;;;;;;;32.53;20.60;;;-3.80;99.90;;;;;;4932806;29;20186;-71
2022/03/04 05:49:41;;;;;;;30.80;22.40;;;-3.80;99.90;;;;;;4931532;29;20729;-76
2022/03/04 05:52:07;;;;;;;31.73;26.80;;;-3.80;99.90;;;;;;4935136;29;20198;-72
2022/03/04 05:54:33;;;;;;;26.30;22.70;;;-4.00;99.90;;;;;;4935116;29;20179;-71
2022/03/04 05:56:59;;;;;;;29.10;20.43;;;-4.10;99.90;;;;;;4935717;29;20190;-72
2022/03/04 05:59:25;;;;;;;25.17;19.13;;;-4.10;99.90;;;;;;4935167;29;20650;-72
2022/03/04 06:01:51;;;;;;;28.10;19.53;;;-4.10;99.90;;;;;;4935778;29;20257;-72
2022/03/04 06:04:17;;;;;;;28.33;20.07;;;-4.10;99.90;;;;;;4935802;29;20182;-73
2022/03/04 06:06:43;;;;;;;25.53;19.13;;;-4.10;99.90;;;;;;4923039;29;20215;-71
2022/03/04 06:09:09;;;;;;;34.23;21.23;;;-4.00;99.90;;;;;;4916951;29;20195;-71
2022/03/04 06:11:35;;;;;;;28.77;20.93;;;-4.00;99.90;;;;;;4916579;29;20210;-71
2022/03/04 06:14:01;;;;;;;26.20;19.63;;;-4.00;99.90;;;;;;4923681;29;20182;-72
2022/03/04 06:16:27;;;;;;;27.70;21.17;;;-4.00;99.90;;;;;;4934786;29;20194;-72
2022/03/04 06:18:54;;;;;;;31.80;22.87;;;-3.90;99.90;;;;;;4922885;29;20227;-73
2022/03/04 06:21:19;;;;;;;28.67;22.50;;;-3.90;99.90;;;;;;4913932;29;20282;-74
2022/03/04 06:23:45;;;;;;;35.37;21.87;;;-3.80;99.90;;;;;;4918862;29;20187;-74
2022/03/04 06:26:11;;;;;;;31.17;22.90;;;-3.70;99.90;;;;;;4936088;29;20214;-74
2022/03/04 06:28:37;;;;;;;33.87;22.10;;;-3.60;99.90;;;;;;4937420;29;20209;-75
2022/03/04 06:31:03;;;;;;;34.10;22.20;;;-3.60;99.90;;;;;;4936202;29;20694;-74
2022/03/04 06:33:32;;;;;;;29.60;21.63;;;-3.50;99.90;;;;;;4935894;29;20178;-73
2022/03/04 06:36:13;;;;;;;33.13;23.60;;;-3.50;99.90;;;;;;4935433;29;20292;-73
2022/03/04 06:38:42;;;;;;;35.47;23.37;;;-3.50;99.90;;;;;;4935810;29;20290;-74
2022/03/04 06:41:09;;;;;;;37.60;23.03;;;-3.50;99.90;;;;;;4935993;29;20203;-74
2022/03/04 06:43:34;;;;;;;40.57;25.87;;;-3.40;99.90;;;;;;4935589;29;20651;-75
2022/03/04 06:46:03;;;;;;;37.80;33.90;;;-3.40;99.90;;;;;;4935482;29;20254;-75
2022/03/04 06:48:29;;;;;;;39.90;28.53;;;-3.20;99.90;;;;;;4935128;29;20194;-75
2022/03/04 06:50:55;;;;;;;32.13;27.23;;;-3.00;99.90;;;;;;4934518;29;20205;-75
2022/03/04 06:53:21;;;;;;;29.40;22.43;;;-2.90;99.90;;;;;;4935855;29;20595;-74
2022/03/04 06:55:47;;;;;;;30.90;20.30;;;-2.80;99.90;;;;;;4934534;29;20191;-75
2022/03/04 06:58:13;;;;;;;28.73;19.40;;;-2.70;99.90;;;;;;4954060;29;20197;-74
2022/03/04 07:00:41;;;;;;;30.30;21.53;;;-2.50;99.90;;;;;;4936932;29;20276;-74
2022/03/04 07:03:08;;;;;;;32.93;22.93;;;-2.40;99.90;;;;;;4933805;29;20194;-74
2022/03/04 07:05:35;;;;;;;32.60;22.43;;;-2.30;99.90;;;;;;4934466;28;20206;-74
2022/03/04 07:08:01;;;;;;;39.50;25.67;;;-2.10;99.90;;;;;;4933995;29;20194;-74
2022/03/04 07:10:27;;;;;;;30.87;22.83;;;-1.90;99.90;;;;;;4937210;29;20175;-73
2022/03/04 07:12:53;;;;;;;36.30;31.67;;;-1.60;99.90;;;;;;4945795;29;20206;-74
2022/03/04 07:15:19;;;;;;;32.77;20.80;;;-1.40;99.90;;;;;;4947337;29;20197;-75
2022/03/04 07:17:49;;;;;;;30.90;20.10;;;-0.80;99.90;;;;;;4935682;29;20187;-73
2022/03/04 07:20:15;;;;;;;32.40;19.40;;;-0.10;99.90;;;;;;4932678;29;20686;-73
2022/03/04 07:22:42;;;;;;;30.07;18.97;;;0.50;99.90;;;;;;4935252;29;20190;-74
2022/03/04 07:25:11;;;;;;;37.03;23.20;;;1.10;99.90;;;;;;4935345;29;20214;-74
2022/03/04 07:27:38;;;;;;;28.23;20.93;;;1.60;99.90;;;;;;4934830;29;20194;-73
2022/03/04 07:30:06;;;;;;;32.27;22.27;;;2.10;99.90;;;;;;4934933;29;20189;-74
2022/03/04 07:32:33;;;;;;;25.63;19.47;;;2.50;99.90;;;;;;4934615;29;20573;-74
2022/03/04 07:34:59;;;;;;;28.17;19.77;;;2.90;99.90;;;;;;4933779;29;20325;-74
2022/03/04 07:37:25;;;;;;;28.30;18.60;;;3.20;99.90;;;;;;4934612;29;20274;-72
2022/03/04 07:39:51;;;;;;;32.10;19.30;;;3.30;99.90;;;;;;4933503;29;20603;-75
2022/03/04 07:42:16;;;;;;;29.93;19.90;;;3.70;99.90;;;;;;4934580;29;20297;-74
2022/03/04 07:44:43;;;;;;;26.77;19.33;;;3.90;99.90;;;;;;4934519;29;20197;-74
2022/03/04 07:47:09;;;;;;;29.47;19.10;;;3.90;99.90;;;;;;4934470;29;20182;-74
2022/03/04 07:49:34;;;;;;;23.43;19.13;;;3.90;99.90;;;;;;4933028;29;20174;-74
2022/03/04 07:52:00;;;;;;;25.47;19.40;;;4.00;99.90;;;;;;4934564;29;20217;-74
2022/03/04 07:54:26;;;;;;;28.33;21.10;;;4.10;99.90;;;;;;4934538;29;20265;-74
2022/03/04 07:56:52;;;;;;;27.53;18.53;;;4.50;99.90;;;;;;4934423;29;20284;-74
2022/03/04 07:59:19;;;;;;;29.07;19.43;;;4.90;99.90;;;;;;4933877;29;20573;-74
2022/03/04 08:01:45;;;;;;;26.20;19.80;;;5.10;99.90;;;;;;4933162;29;20241;-74
2022/03/04 08:04:11;;;;;;;27.63;19.50;;;5.30;99.90;;;;;;4934496;29;20273;-74
2022/03/04 08:06:39;;;;;;;25.33;19.17;;;5.60;99.90;;;;;;4934383;29;20242;-74
2022/03/04 08:09:04;;;;;;;28.53;18.83;;;5.70;99.90;;;;;;4933510;29;20639;-74
2022/03/04 08:11:30;;;;;;;28.83;19.20;;;5.90;99.90;;;;;;4934231;29;20210;-75
2022/03/04 08:13:56;;;;;;;27.03;18.53;;;6.00;99.90;;;;;;4934140;29;20693;-75
2022/03/04 08:16:24;;;;;;;31.53;20.27;;;6.20;99.90;;;;;;4933464;29;20196;-74
2022/03/04 08:18:50;;;;;;;34.77;21.73;;;6.20;99.90;;;;;;4926193;29;20190;-75
2022/03/04 08:21:15;;;;;;;30.80;21.20;;;6.30;99.90;;;;;;4915945;29;20206;-75
2022/03/04 08:23:41;;;;;;;34.37;21.20;;;6.50;99.30;;;;;;4915508;29;20663;-73
2022/03/04 08:26:08;;;;;;;27.50;20.40;;;6.80;98.50;;;;;;4915234;29;20274;-73
2022/03/04 08:28:33;;;;;;;30.20;20.73;;;7.00;96.70;;;;;;4920096;29;20650;-73
2022/03/04 08:31:00;;;;;;;27.47;21.27;;;7.10;96.60;;;;;;4932940;29;20206;-72
2022/03/04 08:33:27;;;;;;;31.33;21.53;;;7.30;95.50;;;;;;4933808;29;20617;-73
2022/03/04 08:35:53;;;;;;;28.03;19.70;;;7.50;94.50;;;;;;4933955;29;20191;-75
2022/03/04 08:38:19;;;;;;;29.87;21.03;;;7.60;93.90;;;;;;4927913;29;20607;-74
2022/03/04 08:40:45;;;;;;;30.07;20.77;;;7.70;93.40;;;;;;4933590;29;20319;-75
2022/03/04 08:43:10;;;;;;;30.67;21.17;;;8.00;92.50;;;;;;4933451;29;20556;-77
2022/03/04 08:45:36;;;;;;;27.70;21.30;;;8.00;92.20;;;;;;4932953;29;20237;-74
2022/03/04 08:48:06;;;;;;;32.73;21.07;;;8.00;91.30;;;;;;4933217;29;20269;-73
2022/03/04 08:50:33;;;;;;;30.30;20.00;;;8.30;91.50;;;;;;4934171;29;20571;-73
2022/03/04 08:53:01;;;;;;;31.80;20.33;;;8.50;90.30;;;;;;4934028;29;20250;-74
2022/03/04 08:55:30;;;;;;;27.70;18.73;;;8.10;89.60;;;;;;4933737;29;20193;-73
2022/03/04 08:57:57;;;;;;;27.20;18.97;;;7.70;89.90;;;;;;4931738;29;20623;-73
2022/03/04 09:00:24;;;;;;;32.07;20.53;;;7.40;90.90;;;;;;4933534;29;20726;-73
2022/03/04 09:02:50;;;;;;;25.23;19.30;;;7.50;90.70;;;;;;4930677;29;20186;-73
2022/03/04 09:05:16;;;;;;;31.63;20.77;;;7.80;90.80;;;;;;4929939;29;20587;-74
2022/03/04 09:07:42;;;;;;;32.90;21.00;;;7.90;89.90;;;;;;4929640;29;20651;-73
2022/03/04 09:10:08;;;;;;;29.93;20.37;;;8.20;89.60;;;;;;4926224;29;20183;-73
2022/03/04 09:12:34;;;;;;;29.30;20.13;;;8.60;86.80;;;;;;4910481;29;20203;-73
2022/03/04 09:15:00;;;;;;;29.73;20.07;;;8.60;85.70;;;;;;4914778;29;20629;-73
2022/03/04 09:17:26;;;;;;;29.90;19.60;;;9.00;83.30;;;;;;4912977;29;20726;-73
2022/03/04 09:19:51;;;;;;;31.70;19.93;;;9.10;81.30;;;;;;4924167;29;20203;-72
2022/03/04 09:22:17;;;;;;;31.53;20.10;;;9.10;81.40;;;;;;4922267;29;20237;-73
2022/03/04 09:24:43;;;;;;;30.13;19.13;;;9.10;80.70;;;;;;4910744;29;20241;-73
2022/03/04 09:27:10;;;;;;;28.90;18.43;;;9.20;79.40;;;;;;4914770;29;20192;-74
2022/03/04 09:29:36;;;;;;;29.87;19.63;;;9.40;78.70;;;;;;4915679;29;20186;-74
2022/03/04 09:32:02;;;;;;;28.20;19.53;;;9.70;77.60;;;;;;4924126;29;20693;-75
2022/03/04 09:34:27;;;;;;;29.87;20.73;;;9.90;75.10;;;;;;4913959;29;20305;-75
2022/03/04 09:36:53;;;;;;;25.70;19.20;;;9.80;73.00;;;;;;4929548;29;20179;-74
2022/03/04 09:39:19;;;;;;;29.90;20.27;;;10.00;74.10;;;;;;4927563;29;20281;-73
2022/03/04 09:41:46;;;;;;;28.80;20.20;;;10.40;71.20;;;;;;4929229;29;20235;-74
2022/03/04 09:44:13;;;;;;;27.93;20.90;;;10.70;69.20;;;;;;4932388;29;20194;-74
2022/03/04 09:46:43;;;;;;;28.13;20.33;;;11.10;67.20;;;;;;4936663;29;20242;-74
2022/03/04 09:49:10;;;;;;;29.20;19.47;;;11.10;65.90;;;;;;4936869;29;20206;-74
2022/03/04 09:51:36;;;;;;;26.30;19.23;;;11.70;63.50;;;;;;4936626;29;20207;-74
2022/03/04 09:54:03;;;;;;;28.13;20.10;;;11.90;61.80;;;;;;4937299;29;20285;-74
2022/03/04 09:56:28;;;;;;;25.33;19.43;;;11.90;61.00;;;;;;4936602;29;20182;-73
2022/03/04 09:58:54;;;;;;;26.77;19.90;;;11.90;60.00;;;;;;4917426;29;20238;-73
2022/03/04 10:01:20;;;;;;;28.63;19.43;;;12.50;58.50;;;;;;4917580;29;20314;-73
2022/03/04 10:03:48;;;;;;;29.13;20.57;;;12.30;57.30;;;;;;4916585;29;20215;-72
2022/03/04 10:06:15;;;;;;;28.53;18.90;;;12.20;57.10;;;;;;4917481;29;20214;-72
2022/03/04 10:08:46;;;;;;;31.83;20.57;;;12.70;55.20;;;;;;4934163;29;20616;-73
2022/03/04 10:11:22;;;;;;;29.73;20.50;;;12.40;53.80;;;;;;4936406;29;20252;-73
2022/03/04 10:13:54;;;;;;;26.93;20.03;;;12.60;53.40;;;;;;4973618;23;20720;-72
2022/03/04 10:16:34;;;;;;;26.33;17.93;;;12.30;53.70;;;;;;4974688;28;20185;-73
2022/03/04 10:19:13;;;;;;;21.30;17.13;;;12.80;50.60;;;;;;4974005;28;20181;-72
2022/03/04 10:21:50;;;;;;;26.17;19.10;;;12.90;50.50;;;;;;4962135;28;20289;-73
2022/03/04 10:24:19;;;;;;;25.37;17.87;;;12.60;50.30;;;;;;4955233;28;20221;-73
2022/03/04 10:26:45;;;;;;;24.10;15.70;;;12.90;49.30;;;;;;4935799;29;20214;-72
2022/03/04 10:29:18;;;;;;;25.57;18.20;;;12.80;48.70;;;;;;4944445;28;20189;-73
2022/03/04 10:32:09;;;;;;;24.73;18.60;;;12.60;49.40;;;;;;4953998;29;20186;-73
2022/03/04 10:34:56;;;;;;;26.07;17.17;;;12.70;48.90;;;;;;4954451;28;20285;-72
2022/03/04 10:37:50;;;;;;;26.93;17.67;;;13.00;47.90;;;;;;4953240;28;20190;-73
2022/03/04 10:40:22;;;;;;;24.23;17.57;;;13.20;48.20;;;;;;4955088;28;20654;-72
2022/03/04 10:42:55;;;;;;;21.83;16.93;;;13.40;46.10;;;;;;4955104;28;20602;-72
2022/03/04 10:45:27;;;;;;;21.73;14.30;;;13.90;45.50;;;;;;4940749;29;20210;-71
2022/03/04 10:48:18;;;;;;;28.00;17.93;;;14.10;44.60;;;;;;4944658;28;20189;-72
2022/03/04 10:50:49;;;;;;;22.73;16.43;;;13.80;45.00;;;;;;4944438;29;20189;-72
2022/03/04 10:53:16;;;;;;;27.80;19.20;;;14.30;44.10;;;;;;4955081;28;20587;-72
2022/03/04 10:55:47;;;;;;;21.23;16.37;;;13.90;43.90;;;;;;4954254;29;20228;-72
2022/03/04 10:58:21;;;;;;;26.03;17.07;;;13.50;43.60;;;;;;4954442;28;20551;-72
2022/03/04 11:01:12;;;;;;;23.93;17.50;;;13.90;43.50;;;;;;4954937;28;20185;-73
2022/03/04 11:03:40;;;;;;;24.33;17.23;;;13.80;44.30;;;;;;4935517;29;20230;-72
2022/03/04 11:06:14;;;;;;;21.37;15.50;;;14.40;43.30;;;;;;4953843;29;20209;-72
2022/03/04 11:08:42;;;;;;;25.00;16.60;;;14.40;41.70;;;;;;4953363;29;20273;-72
2022/03/04 11:11:08;;;;;;;23.43;16.20;;;14.50;41.70;;;;;;4953678;29;20174;-73
2022/03/04 11:13:35;;;;;;;20.13;15.67;;;14.70;40.90;;;;;;4953107;29;20906;-72
2022/03/04 11:16:02;;;;;;;24.73;16.30;;;15.00;41.10;;;;;;4953416;29;20197;-73
2022/03/04 11:18:28;;;;;;;20.77;15.87;;;14.90;40.50;;;;;;4953045;29;20192;-73
2022/03/04 11:20:57;;;;;;;21.70;15.37;;;14.80;40.50;;;;;;4954569;28;20264;-73
2022/03/04 11:23:31;;;;;;;19.70;15.27;;;15.40;39.40;;;;;;4951778;28;20836;-73
2022/03/04 11:26:02;;;;;;;27.83;16.13;;;15.20;37.80;;;;;;4953228;29;20304;-73
2022/03/04 11:28:35;;;;;;;19.80;16.70;;;15.90;37.40;;;;;;4953997;29;20193;-72
2022/03/04 11:31:06;;;;;;;22.67;17.03;;;15.80;37.90;;;;;;4953319;29;20324;-73
2022/03/04 11:33:35;;;;;;;21.00;17.83;;;16.30;37.40;;;;;;4953278;28;20225;-73
2022/03/04 11:36:25;;;;;;;22.50;19.47;;;16.70;36.80;;;;;;4935021;28;20196;-71
2022/03/04 11:38:54;;;;;;;24.63;18.97;;;16.60;36.30;;;;;;4938906;29;20182;-72
2022/03/04 11:41:23;;;;;;;22.60;20.37;;;16.70;35.70;;;;;;4952824;29;20722;-73
2022/03/04 11:43:57;;;;;;;23.13;20.63;;;16.70;35.20;;;;;;4939126;29;20268;-72
2022/03/04 11:46:29;;;;;;;22.67;19.87;;;17.10;35.50;;;;;;4933666;29;20237;-72
2022/03/04 11:49:38;;;;;;;27.10;22.73;;;17.20;35.00;;;;;;4933258;29;20673;-73
2022/03/04 11:52:10;;;;;;;27.30;22.60;;;17.00;34.30;;;;;;4933811;29;20269;-71
2022/03/04 11:54:53;;;;;;;24.40;21.90;;;16.90;35.30;;;;;;4949196;28;20217;-72
2022/03/04 11:57:35;;;;;;;26.67;22.60;;;17.20;34.70;;;;;;4933937;29;20588;-71
2022/03/04 12:00:25;;;;;;;24.27;21.80;;;16.90;34.90;;;;;;4934595;29;20216;-71
2022/03/04 12:02:54;;;;;;;23.97;21.50;;;17.20;34.90;;;;;;4939572;29;20190;-71
2022/03/04 12:05:25;;;;;;;23.73;21.23;;;17.10;35.40;;;;;;4952760;28;20217;-71
2022/03/04 12:07:54;;;;;;;24.10;21.50;;;18.40;33.10;;;;;;4953302;28;20650;-71
2022/03/04 12:10:21;;;;;;;27.97;24.60;;;18.00;34.20;;;;;;4953672;28;20205;-71
2022/03/04 12:12:59;;;;;;;22.60;20.50;;;17.50;33.60;;;;;;4950903;29;20178;-72
2022/03/04 12:15:28;;;;;;;24.23;21.53;;;18.40;32.90;;;;;;4952185;28;20247;-67
2022/03/04 12:18:02;;;;;;;25.60;21.50;;;17.60;34.00;;;;;;4952121;29;20182;-67
2022/03/04 12:20:28;;;;;;;24.00;21.67;;;17.10;34.80;;;;;;4952142;29;20192;-68
2022/03/04 12:23:09;;;;;;;26.03;23.37;;;16.40;36.50;;;;;;4952679;28;20174;-68
2022/03/04 12:25:56;;;;;;;25.37;22.03;;;17.10;34.70;;;;;;4950049;29;20217;-68
2022/03/04 12:28:26;;;;;;;26.97;21.83;;;18.20;34.20;;;;;;4932225;29;20250;-68
2022/03/04 12:31:01;;;;;;;25.00;20.63;;;18.30;33.20;;;;;;4931600;29;20190;-68
2022/03/04 12:33:29;;;;;;;21.93;19.03;;;18.60;33.20;;;;;;4939277;29;20721;-72
2022/03/04 12:35:58;;;;;;;20.93;16.40;;;19.10;32.50;;;;;;4932893;29;20186;-72
2022/03/04 12:38:28;;;;;;;21.43;19.17;;;19.00;31.10;;;;;;4932378;29;20197;-73
2022/03/04 12:40:59;;;;;;;20.63;16.77;;;18.00;32.40;;;;;;4932614;29;20187;-73
2022/03/04 12:43:25;;;;;;;19.13;17.10;;;18.40;32.30;;;;;;4934181;29;20212;-73
2022/03/04 12:45:52;;;;;;;22.67;16.73;;;19.00;31.00;;;;;;4946833;29;20201;-73
2022/03/04 12:48:19;;;;;;;19.23;15.60;;;19.90;30.00;;;;;;4952465;28;20557;-72
2022/03/04 12:50:45;;;;;;;15.80;13.77;;;19.80;29.40;;;;;;4952841;28;20717;-72
2022/03/04 12:53:24;;;;;;;17.70;14.43;;;20.40;29.30;;;;;;4951649;29;20201;-72
2022/03/04 12:55:55;;;;;;;15.43;13.77;;;19.50;29.00;;;;;;4952194;28;20228;-72
2022/03/04 12:58:45;;;;;;;19.77;14.53;;;19.60;29.40;;;;;;4951395;29;20195;-72
2022/03/04 13:01:15;;;;;;;20.10;15.47;;;19.50;29.40;;;;;;4952964;28;20185;-72
2022/03/04 13:03:50;;;;;;;18.13;14.77;;;19.10;29.80;;;;;;4951791;29;20202;-72
2022/03/04 13:06:17;;;;;;;20.27;15.00;;;18.90;30.00;;;;;;4937530;29;20764;-72
2022/03/04 13:08:50;;;;;;;14.87;13.07;;;19.40;29.30;;;;;;4952565;28;20200;-72
2022/03/04 13:11:40;;;;;;;17.03;12.90;;;19.80;29.00;;;;;;4952991;29;20185;-72
2022/03/04 13:14:15;;;;;;;17.73;13.67;;;19.90;28.50;;;;;;4951823;29;20225;-72
2022/03/04 13:16:43;;;;;;;18.40;14.77;;;18.20;29.70;;;;;;4932487;29;20257;-72
2022/03/04 13:19:12;;;;;;;16.77;14.03;;;18.10;30.50;;;;;;4932226;29;20178;-72
2022/03/04 13:21:44;;;;;;;17.20;15.03;;;18.50;30.00;;;;;;4933590;28;20194;-72
2022/03/04 13:24:39;;;;;;;16.77;13.87;;;19.20;29.50;;;;;;4952271;28;20210;-72
2022/03/04 13:27:09;;;;;;;15.80;11.77;;;19.50;28.80;;;;;;4945934;29;20936;-73
2022/03/04 13:30:01;;;;;;;14.50;12.47;;;20.60;27.80;;;;;;4933507;29;20253;-72
2022/03/04 13:32:29;;;;;;;17.00;13.40;;;20.60;27.30;;;;;;4928120;29;20194;-72
2022/03/04 13:34:54;;;;;;;18.70;13.43;;;20.00;28.10;;;;;;4938632;29;20197;-72
2022/03/04 13:37:22;;;;;;;15.93;12.40;;;19.90;28.20;;;;;;4952555;29;20248;-72
2022/03/04 13:40:13;;;;;;;14.13;11.57;;;19.80;27.80;;;;;;4952967;28;20189;-72
2022/03/04 13:42:52;;;;;;;13.47;11.13;;;20.20;27.20;;;;;;4952425;28;20296;-73
2022/03/04 13:45:44;;;;;;;14.47;10.53;;;19.60;27.10;;;;;;4943758;28;20216;-72
2022/03/04 13:48:11;;;;;;;14.20;10.30;;;19.60;26.70;;;;;;4937121;28;20190;-72
2022/03/04 13:50:39;;;;;;;13.83;11.17;;;18.80;27.30;;;;;;4952487;28;20545;-72
2022/03/04 13:53:06;;;;;;;13.27;10.73;;;18.40;28.10;;;;;;4952390;28;20629;-72
2022/03/04 13:55:32;;;;;;;13.97;10.93;;;17.70;28.70;;;;;;4941135;29;20742;-72
2022/03/04 13:58:01;;;;;;;19.67;13.10;;;17.70;28.90;;;;;;4932798;29;20277;-73
2022/03/04 14:00:35;;;;;;;15.83;12.93;;;17.10;30.00;;;;;;4951381;28;20214;-72
2022/03/04 14:03:12;;;;;;;11.27;9.83;;;16.80;30.70;;;;;;4952598;28;20205;-72
2022/03/04 14:05:43;;;;;;;11.40;10.23;;;15.70;29.70;;;;;;4952027;29;20213;-72
2022/03/04 14:08:14;;;;;;;11.00;9.93;;;15.20;29.80;;;;;;4952171;28;20189;-72
2022/03/04 14:10:45;;;;;;;12.33;11.13;;;15.40;29.90;;;;;;4953173;28;20189;-72
2022/03/04 14:13:13;;;;;;;12.57;10.80;;;15.00;30.40;;;;;;4953152;28;20209;-72
2022/03/04 14:15:44;;;;;;;13.83;11.60;;;14.30;30.70;;;;;;4945959;28;20190;-72
2022/03/04 14:18:15;;;;;;;16.67;13.63;;;13.60;33.00;;;;;;4936968;29;20226;-72
2022/03/04 14:20:44;;;;;;;15.87;14.27;;;13.00;34.80;;;;;;4936654;29;20233;-72
2022/03/04 14:23:12;;;;;;;16.27;14.57;;;12.50;35.70;;;;;;4943395;28;20213;-72
2022/03/04 14:25:38;;;;;;;16.07;13.23;;;12.50;36.00;;;;;;4954796;29;20565;-72
2022/03/04 14:28:05;;;;;;;16.87;15.13;;;12.40;37.60;;;;;;4954024;29;20230;-72
2022/03/04 14:30:37;;;;;;;14.77;13.20;;;12.70;36.60;;;;;;4955816;29;20182;-72
2022/03/04 14:33:05;;;;;;;13.70;12.37;;;13.60;34.20;;;;;;4959416;29;20255;-73
2022/03/04 14:35:33;;;;;;;13.00;11.70;;;13.50;33.00;;;;;;4946715;28;20191;-72
2022/03/04 14:37:59;;;;;;;13.37;11.97;;;13.20;33.00;;;;;;4934780;29;20189;-72
2022/03/04 14:40:25;;;;;;;12.17;10.97;;;12.60;33.40;;;;;;4936118;29;20193;-72
2022/03/04 14:42:54;;;;;;;11.23;10.23;;;11.90;34.20;;;;;;4934856;29;20217;-72
2022/03/04 14:45:23;;;;;;;13.57;12.37;;;11.40;34.90;;;;;;4941876;29;20317;-72
2022/03/04 14:47:52;;;;;;;14.00;12.03;;;11.10;36.40;;;;;;4954421;28;20193;-72
2022/03/04 14:50:19;;;;;;;12.90;11.70;;;11.30;37.80;;;;;;4954733;28;20653;-73
2022/03/04 14:52:46;;;;;;;14.30;13.00;;;11.80;37.20;;;;;;4955031;28;20178;-72
2022/03/04 14:55:13;;;;;;;16.47;13.70;;;12.40;36.60;;;;;;4952772;29;20189;-72
2022/03/04 14:57:39;;;;;;;15.30;13.73;;;12.80;35.80;;;;;;4954593;28;20197;-73
2022/03/04 15:00:08;;;;;;;15.90;14.23;;;12.80;34.70;;;;;;4954939;29;20269;-72
2022/03/04 15:02:34;;;;;;;14.10;12.63;;;12.80;35.10;;;;;;4954819;28;20185;-73
2022/03/04 15:04:59;;;;;;;15.33;13.83;;;12.60;34.60;;;;;;4948752;29;20204;-73
2022/03/04 15:07:25;;;;;;;14.37;13.07;;;12.30;35.30;;;;;;4934059;29;20265;-72
2022/03/04 15:09:51;;;;;;;16.30;14.23;;;12.20;35.20;;;;;;4934340;29;20186;-72
2022/03/04 15:12:17;;;;;;;14.20;12.80;;;11.50;35.80;;;;;;4935678;29;20188;-72
2022/03/04 15:14:43;;;;;;;14.27;12.77;;;11.00;36.80;;;;;;4936647;29;20214;-72
2022/03/04 15:17:09;;;;;;;14.73;12.33;;;10.80;37.40;;;;;;4954731;29;20190;-72
2022/03/04 15:19:40;;;;;;;17.70;14.13;;;10.50;37.80;;;;;;4954636;28;20237;-72
2022/03/04 15:22:08;;;;;;;11.83;10.57;;;10.40;38.10;;;;;;4953535;29;20186;-73
2022/03/04 15:24:35;;;;;;;14.30;10.07;;;10.40;38.40;;;;;;4951841;28;20205;-72
2022/03/04 15:27:02;;;;;;;13.40;12.03;;;10.00;39.30;;;;;;4952647;29;20319;-72
2022/03/04 15:29:28;;;;;;;13.93;12.43;;;9.90;40.00;;;;;;4953223;29;20272;-72
2022/03/04 15:31:56;;;;;;;14.70;11.10;;;9.70;40.40;;;;;;4954067;28;20223;-72
2022/03/04 15:34:22;;;;;;;13.67;11.50;;;9.60;41.20;;;;;;4954291;28;20209;-72
2022/03/04 15:36:48;;;;;;;14.97;12.03;;;9.60;41.40;;;;;;4935703;28;20186;-72
2022/03/04 15:39:15;;;;;;;13.37;10.70;;;9.80;41.40;;;;;;4933735;29;20209;-72
2022/03/04 15:41:48;;;;;;;15.37;11.93;;;9.80;41.80;;;;;;4933897;29;20191;-72
2022/03/04 15:44:18;;;;;;;15.80;12.20;;;9.70;42.20;;;;;;4942270;28;20292;-72
2022/03/04 15:46:45;;;;;;;16.70;11.97;;;9.60;43.50;;;;;;4953124;28;20283;-73
2022/03/04 15:49:12;;;;;;;16.17;13.40;;;9.90;42.90;;;;;;4953944;28;20182;-73
2022/03/04 15:51:38;;;;;;;15.30;11.80;;;9.90;42.70;;;;;;4952701;29;20551;-72
2022/03/04 15:54:05;;;;;;;16.00;12.27;;;9.70;43.00;;;;;;4954060;29;20193;-72
2022/03/04 15:56:31;;;;;;;18.40;12.30;;;9.50;43.60;;;;;;4938181;29;20190;-72
2022/03/04 15:58:57;;;;;;;15.10;12.20;;;9.50;44.50;;;;;;4934213;29;20196;-74
2022/03/04 16:01:23;;;;;;;15.27;13.50;;;9.60;44.80;;;;;;4934611;29;20187;-72
2022/03/04 16:03:49;;;;;;;16.13;12.67;;;9.50;45.00;;;;;;4934786;29;20843;-72
2022/03/04 16:06:16;;;;;;;17.07;12.80;;;9.40;45.20;;;;;;4946893;29;20213;-73
2022/03/04 16:08:42;;;;;;;18.27;12.40;;;9.30;45.90;;;;;;4953519;28;20185;-72
2022/03/04 16:11:08;;;;;;;14.33;11.37;;;9.30;46.40;;;;;;4939561;29;20714;-73
2022/03/04 16:13:35;;;;;;;13.33;10.23;;;9.50;45.80;;;;;;4955273;23;21218;-72
2022/03/04 16:16:05;;;;;;;16.63;11.67;;;9.50;45.60;;;;;;4921041;29;20196;-69
2022/03/04 16:18:31;;;;;;;11.87;10.67;;;9.20;45.80;;;;;;4930765;29;20221;-69
2022/03/04 16:20:58;;;;;;;14.37;10.73;;;9.10;46.30;;;;;;4933721;29;20182;-70
2022/03/04 16:23:24;;;;;;;13.63;11.00;;;9.30;46.40;;;;;;4933588;29;20186;-70
2022/03/04 16:25:50;;;;;;;15.33;11.47;;;9.70;46.20;;;;;;4914220;29;20244;-71
2022/03/04 16:28:16;;;;;;;14.33;9.93;;;10.20;44.90;;;;;;4913149;29;20191;-71
2022/03/04 16:30:42;;;;;;;13.37;10.50;;;10.30;44.30;;;;;;4913522;29;20270;-71
2022/03/04 16:33:07;;;;;;;12.63;10.10;;;10.30;44.50;;;;;;4914649;29;20197;-70
2022/03/04 16:35:34;;;;;;;11.37;10.17;;;10.10;44.70;;;;;;4908138;29;20207;-71
2022/03/04 16:38:00;;;;;;;12.10;9.70;;;9.70;45.20;;;;;;4912227;29;20198;-71
2022/03/04 16:40:25;;;;;;;9.77;8.50;;;9.40;45.50;;;;;;4912090;29;20179;-71